<?xml version="1.0" encoding="UTF-8" standalone="no" ?>
<gpx xmlns="http://www.topografix.com/GPX/1/1" xmlns:xsi="http://www.w3.org/2001/XMLSchema-instance" xsi:schemaLocation="http://www.topografix.com/GPX/1/1 http://www.topografix.com/GPX/1/1/gpx.xsd" version="1.1" creator="VisuGPX - https://www.visugpx.com">
  <metadata>
    <name>Pont de la Corde à plage Ste-Anne</name>
    <desc><![CDATA[
Randonnée facile le long de la côte de la baie de Penzé]]></desc>
  </metadata>
  <trk>
    <name><![CDATA[Pont de la Corde à plage Ste-Anne_1]]></name>
    <trkseg>
      <trkpt lat="48.64515" lon="-3.94786">
        <ele>14.7</ele>
        <time>2019-04-30T16:23:09 02:00</time>
      </trkpt>
      <trkpt lat="48.6451" lon="-3.94819">
        <ele>14.4</ele>
        <time>2019-04-30T16:23:19 02:00</time>
      </trkpt>
      <trkpt lat="48.64503" lon="-3.94852">
        <ele>13.6</ele>
        <time>2019-04-30T16:24:26 02:00</time>
      </trkpt>
      <trkpt lat="48.64498" lon="-3.94887">
        <ele>11.7</ele>
        <time>2019-04-30T16:24:38 02:00</time>
      </trkpt>
      <trkpt lat="48.64498" lon="-3.94922">
        <ele>11.1</ele>
        <time>2019-04-30T16:24:52 02:00</time>
      </trkpt>
      <trkpt lat="48.64497" lon="-3.94956">
        <ele>8.7</ele>
        <time>2019-04-30T16:25:06 02:00</time>
      </trkpt>
      <trkpt lat="48.64495" lon="-3.94992">
        <ele>8</ele>
        <time>2019-04-30T16:25:19 02:00</time>
      </trkpt>
      <trkpt lat="48.64492" lon="-3.95026">
        <ele>5.9</ele>
        <time>2019-04-30T16:25:32 02:00</time>
      </trkpt>
      <trkpt lat="48.64489" lon="-3.9506">
        <ele>4.4</ele>
        <time>2019-04-30T16:25:50 02:00</time>
      </trkpt>
      <trkpt lat="48.64484" lon="-3.95093">
        <ele>3</ele>
        <time>2019-04-30T16:26:05 02:00</time>
      </trkpt>
      <trkpt lat="48.64491" lon="-3.95126">
        <ele>3</ele>
        <time>2019-04-30T16:26:21 02:00</time>
      </trkpt>
      <trkpt lat="48.64486" lon="-3.9516">
        <ele>3</ele>
        <time>2019-04-30T16:26:36 02:00</time>
      </trkpt>
      <trkpt lat="48.64476" lon="-3.95193">
        <ele>9</ele>
        <time>2019-04-30T16:26:48 02:00</time>
      </trkpt>
      <trkpt lat="48.64478" lon="-3.95228">
        <ele>9</ele>
        <time>2019-04-30T16:27:03 02:00</time>
      </trkpt>
      <trkpt lat="48.64473" lon="-3.95261">
        <ele>11.2</ele>
        <time>2019-04-30T16:27:15 02:00</time>
      </trkpt>
      <trkpt lat="48.64476" lon="-3.95297">
        <ele>11.4</ele>
        <time>2019-04-30T16:27:27 02:00</time>
      </trkpt>
      <trkpt lat="48.64479" lon="-3.95331">
        <ele>11.2</ele>
        <time>2019-04-30T16:27:40 02:00</time>
      </trkpt>
      <trkpt lat="48.64485" lon="-3.95365">
        <ele>14.3</ele>
        <time>2019-04-30T16:27:57 02:00</time>
      </trkpt>
      <trkpt lat="48.64499" lon="-3.95393">
        <ele>15.3</ele>
        <time>2019-04-30T16:28:13 02:00</time>
      </trkpt>
      <trkpt lat="48.64516" lon="-3.95417">
        <ele>13.5</ele>
        <time>2019-04-30T16:28:27 02:00</time>
      </trkpt>
      <trkpt lat="48.6453" lon="-3.95444">
        <ele>11.9</ele>
        <time>2019-04-30T16:28:47 02:00</time>
      </trkpt>
      <trkpt lat="48.6455" lon="-3.95465">
        <ele>10.8</ele>
        <time>2019-04-30T16:28:57 02:00</time>
      </trkpt>
      <trkpt lat="48.64564" lon="-3.95492">
        <ele>10</ele>
        <time>2019-04-30T16:29:17 02:00</time>
      </trkpt>
      <trkpt lat="48.64584" lon="-3.95508">
        <ele>8</ele>
        <time>2019-04-30T16:29:36 02:00</time>
      </trkpt>
      <trkpt lat="48.64598" lon="-3.95536">
        <ele>8.2</ele>
        <time>2019-04-30T16:30:03 02:00</time>
      </trkpt>
      <trkpt lat="48.64612" lon="-3.95563">
        <ele>8.3</ele>
        <time>2019-04-30T16:30:17 02:00</time>
      </trkpt>
      <trkpt lat="48.6463" lon="-3.95587">
        <ele>8.8</ele>
        <time>2019-04-30T16:30:29 02:00</time>
      </trkpt>
      <trkpt lat="48.64647" lon="-3.95613">
        <ele>8.7</ele>
        <time>2019-04-30T16:30:46 02:00</time>
      </trkpt>
      <trkpt lat="48.64664" lon="-3.95635">
        <ele>9.3</ele>
        <time>2019-04-30T16:31:26 02:00</time>
      </trkpt>
      <trkpt lat="48.64687" lon="-3.9564">
        <ele>7.9</ele>
        <time>2019-04-30T16:31:44 02:00</time>
      </trkpt>
      <trkpt lat="48.64709" lon="-3.95638">
        <ele>7.7</ele>
        <time>2019-04-30T16:31:53 02:00</time>
      </trkpt>
      <trkpt lat="48.64731" lon="-3.9565">
        <ele>7.8</ele>
        <time>2019-04-30T16:32:08 02:00</time>
      </trkpt>
      <trkpt lat="48.64753" lon="-3.95668">
        <ele>8.1</ele>
        <time>2019-04-30T16:32:21 02:00</time>
      </trkpt>
      <trkpt lat="48.64771" lon="-3.95691">
        <ele>8.6</ele>
        <time>2019-04-30T16:32:37 02:00</time>
      </trkpt>
      <trkpt lat="48.64788" lon="-3.95714">
        <ele>9</ele>
        <time>2019-04-30T16:32:49 02:00</time>
      </trkpt>
      <trkpt lat="48.64794" lon="-3.9575">
        <ele>12.6</ele>
        <time>2019-04-30T16:33:08 02:00</time>
      </trkpt>
      <trkpt lat="48.64803" lon="-3.95783">
        <ele>13.1</ele>
        <time>2019-04-30T16:33:23 02:00</time>
      </trkpt>
      <trkpt lat="48.64826" lon="-3.95788">
        <ele>12.8</ele>
        <time>2019-04-30T16:33:37 02:00</time>
      </trkpt>
      <trkpt lat="48.64833" lon="-3.95756">
        <ele>10</ele>
        <time>2019-04-30T16:33:55 02:00</time>
      </trkpt>
      <trkpt lat="48.64836" lon="-3.95721">
        <ele>7.8</ele>
        <time>2019-04-30T16:34:11 02:00</time>
      </trkpt>
      <trkpt lat="48.64853" lon="-3.95696">
        <ele>7</ele>
        <time>2019-04-30T16:34:27 02:00</time>
      </trkpt>
      <trkpt lat="48.64863" lon="-3.95664">
        <ele>4.8</ele>
        <time>2019-04-30T16:34:44 02:00</time>
      </trkpt>
      <trkpt lat="48.64877" lon="-3.95636">
        <ele>4.5</ele>
        <time>2019-04-30T16:35:05 02:00</time>
      </trkpt>
      <trkpt lat="48.64901" lon="-3.95643">
        <ele>4.8</ele>
        <time>2019-04-30T16:35:20 02:00</time>
      </trkpt>
      <trkpt lat="48.64923" lon="-3.95653">
        <ele>5.2</ele>
        <time>2019-04-30T16:35:34 02:00</time>
      </trkpt>
      <trkpt lat="48.64931" lon="-3.95687">
        <ele>7.3</ele>
        <time>2019-04-30T16:35:54 02:00</time>
      </trkpt>
      <trkpt lat="48.64945" lon="-3.95715">
        <ele>8.2</ele>
        <time>2019-04-30T16:36:11 02:00</time>
      </trkpt>
      <trkpt lat="48.64954" lon="-3.95749">
        <ele>8.6</ele>
        <time>2019-04-30T16:36:28 02:00</time>
      </trkpt>
      <trkpt lat="48.64975" lon="-3.95768">
        <ele>11.3</ele>
        <time>2019-04-30T16:36:44 02:00</time>
      </trkpt>
      <trkpt lat="48.64995" lon="-3.95784">
        <ele>11.6</ele>
        <time>2019-04-30T16:36:58 02:00</time>
      </trkpt>
      <trkpt lat="48.65018" lon="-3.95787">
        <ele>12.2</ele>
        <time>2019-04-30T16:37:09 02:00</time>
      </trkpt>
      <trkpt lat="48.65041" lon="-3.9579">
        <ele>12.7</ele>
        <time>2019-04-30T16:37:30 02:00</time>
      </trkpt>
      <trkpt lat="48.65064" lon="-3.95783">
        <ele>12.7</ele>
        <time>2019-04-30T16:37:44 02:00</time>
      </trkpt>
      <trkpt lat="48.65087" lon="-3.95791">
        <ele>14.1</ele>
        <time>2019-04-30T16:38:00 02:00</time>
      </trkpt>
      <trkpt lat="48.651" lon="-3.95763">
        <ele>12.9</ele>
        <time>2019-04-30T16:38:18 02:00</time>
      </trkpt>
      <trkpt lat="48.65124" lon="-3.95765">
        <ele>13.6</ele>
        <time>2019-04-30T16:38:32 02:00</time>
      </trkpt>
      <trkpt lat="48.65146" lon="-3.95771">
        <ele>13.8</ele>
        <time>2019-04-30T16:38:49 02:00</time>
      </trkpt>
      <trkpt lat="48.65155" lon="-3.95804">
        <ele>14.7</ele>
        <time>2019-04-30T16:39:05 02:00</time>
      </trkpt>
      <trkpt lat="48.65164" lon="-3.95839">
        <ele>16.6</ele>
        <time>2019-04-30T16:39:22 02:00</time>
      </trkpt>
      <trkpt lat="48.65177" lon="-3.95867">
        <ele>19.5</ele>
        <time>2019-04-30T16:39:42 02:00</time>
      </trkpt>
      <trkpt lat="48.652" lon="-3.95857">
        <ele>20</ele>
        <time>2019-04-30T16:40:05 02:00</time>
      </trkpt>
      <trkpt lat="48.65221" lon="-3.9584">
        <ele>20.5</ele>
        <time>2019-04-30T16:40:14 02:00</time>
      </trkpt>
      <trkpt lat="48.65243" lon="-3.95827">
        <ele>19.6</ele>
        <time>2019-04-30T16:40:27 02:00</time>
      </trkpt>
      <trkpt lat="48.65262" lon="-3.95806">
        <ele>20.5</ele>
        <time>2019-04-30T16:40:40 02:00</time>
      </trkpt>
      <trkpt lat="48.65281" lon="-3.95787">
        <ele>20.3</ele>
        <time>2019-04-30T16:41:01 02:00</time>
      </trkpt>
      <trkpt lat="48.65303" lon="-3.95778">
        <ele>20.7</ele>
        <time>2019-04-30T16:41:15 02:00</time>
      </trkpt>
      <trkpt lat="48.65323" lon="-3.95762">
        <ele>20.9</ele>
        <time>2019-04-30T16:41:27 02:00</time>
      </trkpt>
      <trkpt lat="48.65343" lon="-3.95743">
        <ele>21.1</ele>
        <time>2019-04-30T16:41:44 02:00</time>
      </trkpt>
      <trkpt lat="48.65366" lon="-3.95734">
        <ele>21.6</ele>
        <time>2019-04-30T16:42:00 02:00</time>
      </trkpt>
      <trkpt lat="48.65385" lon="-3.95714">
        <ele>21.7</ele>
        <time>2019-04-30T16:42:23 02:00</time>
      </trkpt>
      <trkpt lat="48.65405" lon="-3.95696">
        <ele>21.5</ele>
        <time>2019-04-30T16:42:54 02:00</time>
      </trkpt>
      <trkpt lat="48.65428" lon="-3.95689">
        <ele>22.8</ele>
        <time>2019-04-30T16:43:08 02:00</time>
      </trkpt>
      <trkpt lat="48.65445" lon="-3.95666">
        <ele>19</ele>
        <time>2019-04-30T16:43:22 02:00</time>
      </trkpt>
      <trkpt lat="48.65468" lon="-3.95653">
        <ele>18.6</ele>
        <time>2019-04-30T16:43:41 02:00</time>
      </trkpt>
      <trkpt lat="48.65492" lon="-3.9565">
        <ele>19.2</ele>
        <time>2019-04-30T16:43:55 02:00</time>
      </trkpt>
      <trkpt lat="48.65509" lon="-3.95626">
        <ele>18.6</ele>
        <time>2019-04-30T16:44:11 02:00</time>
      </trkpt>
      <trkpt lat="48.65531" lon="-3.95615">
        <ele>18.3</ele>
        <time>2019-04-30T16:44:35 02:00</time>
      </trkpt>
      <trkpt lat="48.65554" lon="-3.95605">
        <ele>18</ele>
        <time>2019-04-30T16:44:49 02:00</time>
      </trkpt>
      <trkpt lat="48.65577" lon="-3.956">
        <ele>17.5</ele>
        <time>2019-04-30T16:45:07 02:00</time>
      </trkpt>
      <trkpt lat="48.656" lon="-3.956">
        <ele>18.9</ele>
        <time>2019-04-30T16:45:23 02:00</time>
      </trkpt>
      <trkpt lat="48.65623" lon="-3.95596">
        <ele>19.6</ele>
        <time>2019-04-30T16:45:37 02:00</time>
      </trkpt>
      <trkpt lat="48.65644" lon="-3.95583">
        <ele>15.8</ele>
        <time>2019-04-30T16:45:53 02:00</time>
      </trkpt>
      <trkpt lat="48.65666" lon="-3.95574">
        <ele>16.8</ele>
        <time>2019-04-30T16:46:09 02:00</time>
      </trkpt>
      <trkpt lat="48.65687" lon="-3.95562">
        <ele>17.8</ele>
        <time>2019-04-30T16:46:25 02:00</time>
      </trkpt>
      <trkpt lat="48.65709" lon="-3.95553">
        <ele>18.1</ele>
        <time>2019-04-30T16:46:41 02:00</time>
      </trkpt>
      <trkpt lat="48.65732" lon="-3.95542">
        <ele>18.4</ele>
        <time>2019-04-30T16:46:55 02:00</time>
      </trkpt>
      <trkpt lat="48.65754" lon="-3.95533">
        <ele>20.5</ele>
        <time>2019-04-30T16:47:11 02:00</time>
      </trkpt>
      <trkpt lat="48.65774" lon="-3.95513">
        <ele>20.1</ele>
        <time>2019-04-30T16:47:23 02:00</time>
      </trkpt>
      <trkpt lat="48.65794" lon="-3.95495">
        <ele>17.8</ele>
        <time>2019-04-30T16:47:43 02:00</time>
      </trkpt>
      <trkpt lat="48.65807" lon="-3.95466">
        <ele>17.5</ele>
        <time>2019-04-30T16:47:57 02:00</time>
      </trkpt>
      <trkpt lat="48.65826" lon="-3.95449">
        <ele>17.1</ele>
        <time>2019-04-30T16:48:11 02:00</time>
      </trkpt>
      <trkpt lat="48.65846" lon="-3.95431">
        <ele>17.8</ele>
        <time>2019-04-30T16:48:32 02:00</time>
      </trkpt>
      <trkpt lat="48.65869" lon="-3.95427">
        <ele>18.3</ele>
        <time>2019-04-30T16:48:44 02:00</time>
      </trkpt>
      <trkpt lat="48.65892" lon="-3.95427">
        <ele>18.3</ele>
        <time>2019-04-30T16:48:58 02:00</time>
      </trkpt>
      <trkpt lat="48.65914" lon="-3.95427">
        <ele>17.8</ele>
        <time>2019-04-30T16:49:15 02:00</time>
      </trkpt>
      <trkpt lat="48.65934" lon="-3.95445">
        <ele>18.5</ele>
        <time>2019-04-30T16:49:33 02:00</time>
      </trkpt>
      <trkpt lat="48.65956" lon="-3.95456">
        <ele>18.7</ele>
        <time>2019-04-30T16:49:47 02:00</time>
      </trkpt>
      <trkpt lat="48.65978" lon="-3.9547">
        <ele>18.9</ele>
        <time>2019-04-30T16:49:59 02:00</time>
      </trkpt>
      <trkpt lat="48.66" lon="-3.95481">
        <ele>19.2</ele>
        <time>2019-04-30T16:50:16 02:00</time>
      </trkpt>
      <trkpt lat="48.66023" lon="-3.9549">
        <ele>18.4</ele>
        <time>2019-04-30T16:50:31 02:00</time>
      </trkpt>
      <trkpt lat="48.66044" lon="-3.955">
        <ele>20.5</ele>
        <time>2019-04-30T16:50:43 02:00</time>
      </trkpt>
      <trkpt lat="48.66067" lon="-3.95511">
        <ele>19.9</ele>
        <time>2019-04-30T16:51:00 02:00</time>
      </trkpt>
      <trkpt lat="48.66086" lon="-3.9553">
        <ele>18.8</ele>
        <time>2019-04-30T16:51:19 02:00</time>
      </trkpt>
      <trkpt lat="48.66106" lon="-3.95548">
        <ele>19.2</ele>
        <time>2019-04-30T16:52:16 02:00</time>
      </trkpt>
      <trkpt lat="48.6613" lon="-3.95544">
        <ele>18.4</ele>
        <time>2019-04-30T16:53:45 02:00</time>
      </trkpt>
      <trkpt lat="48.66147" lon="-3.95521">
        <ele>17.4</ele>
        <time>2019-04-30T16:53:55 02:00</time>
      </trkpt>
      <trkpt lat="48.66169" lon="-3.9553">
        <ele>14.7</ele>
        <time>2019-04-30T16:54:55 02:00</time>
      </trkpt>
      <trkpt lat="48.66192" lon="-3.95532">
        <ele>14.3</ele>
        <time>2019-04-30T16:55:16 02:00</time>
      </trkpt>
      <trkpt lat="48.66204" lon="-3.95502">
        <ele>13.6</ele>
        <time>2019-04-30T16:55:31 02:00</time>
      </trkpt>
      <trkpt lat="48.66216" lon="-3.95472">
        <ele>11.9</ele>
        <time>2019-04-30T16:55:50 02:00</time>
      </trkpt>
      <trkpt lat="48.6624" lon="-3.95468">
        <ele>11.3</ele>
        <time>2019-04-30T16:56:11 02:00</time>
      </trkpt>
      <trkpt lat="48.66261" lon="-3.95483">
        <ele>9.3</ele>
        <time>2019-04-30T16:56:28 02:00</time>
      </trkpt>
      <trkpt lat="48.66284" lon="-3.95497">
        <ele>9</ele>
        <time>2019-04-30T16:56:42 02:00</time>
      </trkpt>
      <trkpt lat="48.66304" lon="-3.95514">
        <ele>9.6</ele>
        <time>2019-04-30T16:56:57 02:00</time>
      </trkpt>
      <trkpt lat="48.66327" lon="-3.95526">
        <ele>9.4</ele>
        <time>2019-04-30T16:57:11 02:00</time>
      </trkpt>
      <trkpt lat="48.66349" lon="-3.95533">
        <ele>8.9</ele>
        <time>2019-04-30T16:57:26 02:00</time>
      </trkpt>
      <trkpt lat="48.66371" lon="-3.95546">
        <ele>9.1</ele>
        <time>2019-04-30T16:57:42 02:00</time>
      </trkpt>
      <trkpt lat="48.66391" lon="-3.95563">
        <ele>9.3</ele>
        <time>2019-04-30T16:57:56 02:00</time>
      </trkpt>
      <trkpt lat="48.66413" lon="-3.95572">
        <ele>9.6</ele>
        <time>2019-04-30T16:58:11 02:00</time>
      </trkpt>
      <trkpt lat="48.66423" lon="-3.95539">
        <ele>9.1</ele>
        <time>2019-04-30T16:58:25 02:00</time>
      </trkpt>
      <trkpt lat="48.66433" lon="-3.95507">
        <ele>8.6</ele>
        <time>2019-04-30T16:58:39 02:00</time>
      </trkpt>
      <trkpt lat="48.66447" lon="-3.95478">
        <ele>7.4</ele>
        <time>2019-04-30T16:58:54 02:00</time>
      </trkpt>
      <trkpt lat="48.66462" lon="-3.95452">
        <ele>7.2</ele>
        <time>2019-04-30T16:59:11 02:00</time>
      </trkpt>
      <trkpt lat="48.66479" lon="-3.95429">
        <ele>6.8</ele>
        <time>2019-04-30T16:59:27 02:00</time>
      </trkpt>
      <trkpt lat="48.66501" lon="-3.95419">
        <ele>6.1</ele>
        <time>2019-04-30T16:59:42 02:00</time>
      </trkpt>
      <trkpt lat="48.66521" lon="-3.95433">
        <ele>6.4</ele>
        <time>2019-04-30T16:59:58 02:00</time>
      </trkpt>
      <trkpt lat="48.66534" lon="-3.95461">
        <ele>6.8</ele>
        <time>2019-04-30T17:00:13 02:00</time>
      </trkpt>
      <trkpt lat="48.66554" lon="-3.9548">
        <ele>7.1</ele>
        <time>2019-04-30T17:00:30 02:00</time>
      </trkpt>
      <trkpt lat="48.66562" lon="-3.95513">
        <ele>8.9</ele>
        <time>2019-04-30T17:00:48 02:00</time>
      </trkpt>
      <trkpt lat="48.66571" lon="-3.95546">
        <ele>9.6</ele>
        <time>2019-04-30T17:01:07 02:00</time>
      </trkpt>
      <trkpt lat="48.66584" lon="-3.95577">
        <ele>10.5</ele>
        <time>2019-04-30T17:01:23 02:00</time>
      </trkpt>
      <trkpt lat="48.6659" lon="-3.9561">
        <ele>11.3</ele>
        <time>2019-04-30T17:01:38 02:00</time>
      </trkpt>
      <trkpt lat="48.66599" lon="-3.95644">
        <ele>11.8</ele>
        <time>2019-04-30T17:01:55 02:00</time>
      </trkpt>
      <trkpt lat="48.66614" lon="-3.95671">
        <ele>12.5</ele>
        <time>2019-04-30T17:02:13 02:00</time>
      </trkpt>
      <trkpt lat="48.6663" lon="-3.95695">
        <ele>12.4</ele>
        <time>2019-04-30T17:02:25 02:00</time>
      </trkpt>
      <trkpt lat="48.66645" lon="-3.95722">
        <ele>12.3</ele>
        <time>2019-04-30T17:02:40 02:00</time>
      </trkpt>
      <trkpt lat="48.66656" lon="-3.95752">
        <ele>12.9</ele>
        <time>2019-04-30T17:02:59 02:00</time>
      </trkpt>
      <trkpt lat="48.66663" lon="-3.95786">
        <ele>14</ele>
        <time>2019-04-30T17:03:19 02:00</time>
      </trkpt>
      <trkpt lat="48.66665" lon="-3.95821">
        <ele>14.8</ele>
        <time>2019-04-30T17:05:05 02:00</time>
      </trkpt>
      <trkpt lat="48.66678" lon="-3.95849">
        <ele>15.2</ele>
        <time>2019-04-30T17:05:21 02:00</time>
      </trkpt>
      <trkpt lat="48.66701" lon="-3.95856">
        <ele>15.1</ele>
        <time>2019-04-30T17:05:36 02:00</time>
      </trkpt>
      <trkpt lat="48.66724" lon="-3.95865">
        <ele>15</ele>
        <time>2019-04-30T17:06:13 02:00</time>
      </trkpt>
      <trkpt lat="48.66747" lon="-3.95868">
        <ele>14.9</ele>
        <time>2019-04-30T17:06:29 02:00</time>
      </trkpt>
      <trkpt lat="48.66771" lon="-3.95871">
        <ele>15.8</ele>
        <time>2019-04-30T17:06:51 02:00</time>
      </trkpt>
      <trkpt lat="48.66794" lon="-3.95873">
        <ele>16.3</ele>
        <time>2019-04-30T17:07:08 02:00</time>
      </trkpt>
      <trkpt lat="48.66817" lon="-3.95881">
        <ele>16.9</ele>
        <time>2019-04-30T17:07:24 02:00</time>
      </trkpt>
      <trkpt lat="48.66838" lon="-3.9589">
        <ele>19.3</ele>
        <time>2019-04-30T17:07:43 02:00</time>
      </trkpt>
      <trkpt lat="48.66861" lon="-3.95893">
        <ele>19.6</ele>
        <time>2019-04-30T17:08:08 02:00</time>
      </trkpt>
      <trkpt lat="48.66885" lon="-3.95892">
        <ele>20</ele>
        <time>2019-04-30T17:08:30 02:00</time>
      </trkpt>
      <trkpt lat="48.66906" lon="-3.95877">
        <ele>19.8</ele>
        <time>2019-04-30T17:08:43 02:00</time>
      </trkpt>
      <trkpt lat="48.6691" lon="-3.95843">
        <ele>17.9</ele>
        <time>2019-04-30T17:09:05 02:00</time>
      </trkpt>
      <trkpt lat="48.66913" lon="-3.95809">
        <ele>14.8</ele>
        <time>2019-04-30T17:09:21 02:00</time>
      </trkpt>
      <trkpt lat="48.66928" lon="-3.95783">
        <ele>12.6</ele>
        <time>2019-04-30T17:09:41 02:00</time>
      </trkpt>
      <trkpt lat="48.6694" lon="-3.95752">
        <ele>11.7</ele>
        <time>2019-04-30T17:10:05 02:00</time>
      </trkpt>
      <trkpt lat="48.66959" lon="-3.95733">
        <ele>8.7</ele>
        <time>2019-04-30T17:10:16 02:00</time>
      </trkpt>
      <trkpt lat="48.66983" lon="-3.95731">
        <ele>8.5</ele>
        <time>2019-04-30T17:10:32 02:00</time>
      </trkpt>
      <trkpt lat="48.67003" lon="-3.95746">
        <ele>8.6</ele>
        <time>2019-04-30T17:10:50 02:00</time>
      </trkpt>
      <trkpt lat="48.67021" lon="-3.95768">
        <ele>9.4</ele>
        <time>2019-04-30T17:11:05 02:00</time>
      </trkpt>
      <trkpt lat="48.67044" lon="-3.95769">
        <ele>9.1</ele>
        <time>2019-04-30T17:11:20 02:00</time>
      </trkpt>
      <trkpt lat="48.67062" lon="-3.95746">
        <ele>7.1</ele>
        <time>2019-04-30T17:11:41 02:00</time>
      </trkpt>
      <trkpt lat="48.67068" lon="-3.95713">
        <ele>6.9</ele>
        <time>2019-04-30T17:11:57 02:00</time>
      </trkpt>
      <trkpt lat="48.67082" lon="-3.95684">
        <ele>6.5</ele>
        <time>2019-04-30T17:12:13 02:00</time>
      </trkpt>
      <trkpt lat="48.671" lon="-3.95664">
        <ele>5.4</ele>
        <time>2019-04-30T17:12:31 02:00</time>
      </trkpt>
      <trkpt lat="48.67104" lon="-3.9563">
        <ele>4.9</ele>
        <time>2019-04-30T17:12:44 02:00</time>
      </trkpt>
      <trkpt lat="48.67105" lon="-3.95596">
        <ele>4.5</ele>
        <time>2019-04-30T17:12:56 02:00</time>
      </trkpt>
      <trkpt lat="48.67115" lon="-3.95565">
        <ele>4</ele>
        <time>2019-04-30T17:13:11 02:00</time>
      </trkpt>
      <trkpt lat="48.67121" lon="-3.9553">
        <ele>4</ele>
        <time>2019-04-30T17:13:24 02:00</time>
      </trkpt>
      <trkpt lat="48.67122" lon="-3.95496">
        <ele>3.8</ele>
        <time>2019-04-30T17:13:39 02:00</time>
      </trkpt>
      <trkpt lat="48.67113" lon="-3.95463">
        <ele>3.8</ele>
        <time>2019-04-30T17:13:52 02:00</time>
      </trkpt>
      <trkpt lat="48.67108" lon="-3.95429">
        <ele>3.8</ele>
        <time>2019-04-30T17:14:08 02:00</time>
      </trkpt>
      <trkpt lat="48.6711" lon="-3.95393">
        <ele>3.5</ele>
        <time>2019-04-30T17:14:27 02:00</time>
      </trkpt>
      <trkpt lat="48.67128" lon="-3.9537">
        <ele>3.3</ele>
        <time>2019-04-30T17:14:43 02:00</time>
      </trkpt>
      <trkpt lat="48.67145" lon="-3.95345">
        <ele>3.2</ele>
        <time>2019-04-30T17:15:01 02:00</time>
      </trkpt>
      <trkpt lat="48.67163" lon="-3.95325">
        <ele>3.1</ele>
        <time>2019-04-30T17:15:18 02:00</time>
      </trkpt>
      <trkpt lat="48.67152" lon="-3.95294">
        <ele>3.4</ele>
        <time>2019-04-30T17:15:54 02:00</time>
      </trkpt>
      <trkpt lat="48.67132" lon="-3.95276">
        <ele>3.4</ele>
        <time>2019-04-30T17:16:10 02:00</time>
      </trkpt>
      <trkpt lat="48.67126" lon="-3.95243">
        <ele>4.2</ele>
        <time>2019-04-30T17:16:28 02:00</time>
      </trkpt>
      <trkpt lat="48.67118" lon="-3.95211">
        <ele>4.4</ele>
        <time>2019-04-30T17:16:47 02:00</time>
      </trkpt>
      <trkpt lat="48.67116" lon="-3.95175">
        <ele>4.8</ele>
        <time>2019-04-30T17:17:02 02:00</time>
      </trkpt>
      <trkpt lat="48.67109" lon="-3.95142">
        <ele>5</ele>
        <time>2019-04-30T17:17:19 02:00</time>
      </trkpt>
      <trkpt lat="48.67099" lon="-3.95111">
        <ele>4.7</ele>
        <time>2019-04-30T17:18:05 02:00</time>
      </trkpt>
      <trkpt lat="48.6711" lon="-3.95081">
        <ele>3.8</ele>
        <time>2019-04-30T17:18:26 02:00</time>
      </trkpt>
      <trkpt lat="48.67133" lon="-3.95082">
        <ele>3.9</ele>
        <time>2019-04-30T17:18:50 02:00</time>
      </trkpt>
      <trkpt lat="48.6715" lon="-3.95059">
        <ele>3.8</ele>
        <time>2019-04-30T17:19:11 02:00</time>
      </trkpt>
      <trkpt lat="48.67173" lon="-3.95067">
        <ele>4.3</ele>
        <time>2019-04-30T17:19:54 02:00</time>
      </trkpt>
      <trkpt lat="48.67195" lon="-3.95076">
        <ele>4.3</ele>
        <time>2019-04-30T17:20:10 02:00</time>
      </trkpt>
      <trkpt lat="48.67218" lon="-3.95084">
        <ele>5.9</ele>
        <time>2019-04-30T17:20:24 02:00</time>
      </trkpt>
      <trkpt lat="48.67233" lon="-3.95055">
        <ele>4.3</ele>
        <time>2019-04-30T17:20:37 02:00</time>
      </trkpt>
      <trkpt lat="48.67252" lon="-3.95036">
        <ele>3.7</ele>
        <time>2019-04-30T17:20:51 02:00</time>
      </trkpt>
      <trkpt lat="48.67274" lon="-3.95035">
        <ele>3.6</ele>
        <time>2019-04-30T17:21:13 02:00</time>
      </trkpt>
      <trkpt lat="48.6729" lon="-3.95061">
        <ele>3.6</ele>
        <time>2019-04-30T17:21:33 02:00</time>
      </trkpt>
      <trkpt lat="48.67294" lon="-3.95095">
        <ele>4.5</ele>
        <time>2019-04-30T17:21:56 02:00</time>
      </trkpt>
      <trkpt lat="48.67278" lon="-3.95121">
        <ele>5.3</ele>
        <time>2019-04-30T17:22:29 02:00</time>
      </trkpt>
      <trkpt lat="48.67274" lon="-3.95157">
        <ele>5.9</ele>
        <time>2019-04-30T17:22:45 02:00</time>
      </trkpt>
      <trkpt lat="48.67279" lon="-3.95193">
        <ele>5.2</ele>
        <time>2019-04-30T17:23:00 02:00</time>
      </trkpt>
      <trkpt lat="48.67286" lon="-3.95225">
        <ele>4.5</ele>
        <time>2019-04-30T17:23:18 02:00</time>
      </trkpt>
      <trkpt lat="48.67298" lon="-3.95255">
        <ele>3.3</ele>
        <time>2019-04-30T17:23:34 02:00</time>
      </trkpt>
      <trkpt lat="48.67306" lon="-3.95288">
        <ele>3.3</ele>
        <time>2019-04-30T17:23:48 02:00</time>
      </trkpt>
      <trkpt lat="48.67312" lon="-3.95322">
        <ele>3.3</ele>
        <time>2019-04-30T17:24:05 02:00</time>
      </trkpt>
      <trkpt lat="48.67325" lon="-3.9535">
        <ele>3.3</ele>
        <time>2019-04-30T17:24:26 02:00</time>
      </trkpt>
      <trkpt lat="48.67343" lon="-3.95376">
        <ele>3.2</ele>
        <time>2019-04-30T17:24:39 02:00</time>
      </trkpt>
      <trkpt lat="48.67362" lon="-3.95395">
        <ele>3.2</ele>
        <time>2019-04-30T17:24:55 02:00</time>
      </trkpt>
      <trkpt lat="48.67384" lon="-3.95404">
        <ele>3.1</ele>
        <time>2019-04-30T17:25:12 02:00</time>
      </trkpt>
      <trkpt lat="48.67407" lon="-3.95408">
        <ele>3</ele>
        <time>2019-04-30T17:25:27 02:00</time>
      </trkpt>
      <trkpt lat="48.6743" lon="-3.95406">
        <ele>3</ele>
        <time>2019-04-30T17:25:41 02:00</time>
      </trkpt>
      <trkpt lat="48.67452" lon="-3.95399">
        <ele>3.1</ele>
        <time>2019-04-30T17:25:56 02:00</time>
      </trkpt>
      <trkpt lat="48.67462" lon="-3.95368">
        <ele>3</ele>
        <time>2019-04-30T17:26:09 02:00</time>
      </trkpt>
      <trkpt lat="48.67478" lon="-3.95343">
        <ele>3</ele>
        <time>2019-04-30T17:26:41 02:00</time>
      </trkpt>
      <trkpt lat="48.67501" lon="-3.95352">
        <ele>3</ele>
        <time>2019-04-30T17:27:04 02:00</time>
      </trkpt>
      <trkpt lat="48.67525" lon="-3.95351">
        <ele>2.9</ele>
        <time>2019-04-30T17:27:21 02:00</time>
      </trkpt>
      <trkpt lat="48.67543" lon="-3.95375">
        <ele>2.6</ele>
        <time>2019-04-30T17:27:39 02:00</time>
      </trkpt>
      <trkpt lat="48.67525" lon="-3.95395">
        <ele>3</ele>
        <time>2019-04-30T17:28:03 02:00</time>
      </trkpt>
      <trkpt lat="48.67511" lon="-3.95423">
        <ele>3.3</ele>
        <time>2019-04-30T17:28:24 02:00</time>
      </trkpt>
      <trkpt lat="48.67504" lon="-3.95456">
        <ele>2.7</ele>
        <time>2019-04-30T17:28:39 02:00</time>
      </trkpt>
      <trkpt lat="48.67501" lon="-3.95493">
        <ele>2.8</ele>
        <time>2019-04-30T17:28:52 02:00</time>
      </trkpt>
      <trkpt lat="48.67478" lon="-3.95494">
        <ele>3.2</ele>
        <time>2019-04-30T17:29:09 02:00</time>
      </trkpt>
      <trkpt lat="48.67455" lon="-3.95498">
        <ele>3.2</ele>
        <time>2019-04-30T17:29:25 02:00</time>
      </trkpt>
      <trkpt lat="48.67432" lon="-3.95506">
        <ele>2.9</ele>
        <time>2019-04-30T17:29:37 02:00</time>
      </trkpt>
      <trkpt lat="48.67412" lon="-3.95521">
        <ele>3</ele>
        <time>2019-04-30T17:30:00 02:00</time>
      </trkpt>
      <trkpt lat="48.67391" lon="-3.95538">
        <ele>2.9</ele>
        <time>2019-04-30T17:30:15 02:00</time>
      </trkpt>
      <trkpt lat="48.67369" lon="-3.95541">
        <ele>3</ele>
        <time>2019-04-30T17:30:31 02:00</time>
      </trkpt>
      <trkpt lat="48.67345" lon="-3.9555">
        <ele>3.1</ele>
        <time>2019-04-30T17:30:45 02:00</time>
      </trkpt>
      <trkpt lat="48.67325" lon="-3.95569">
        <ele>3.4</ele>
        <time>2019-04-30T17:31:01 02:00</time>
      </trkpt>
      <trkpt lat="48.67309" lon="-3.95594">
        <ele>3.2</ele>
        <time>2019-04-30T17:31:18 02:00</time>
      </trkpt>
      <trkpt lat="48.67316" lon="-3.95627">
        <ele>3</ele>
        <time>2019-04-30T17:31:51 02:00</time>
      </trkpt>
      <trkpt lat="48.67325" lon="-3.9566">
        <ele>2.5</ele>
        <time>2019-04-30T17:32:08 02:00</time>
      </trkpt>
      <trkpt lat="48.67327" lon="-3.95694">
        <ele>3.1</ele>
        <time>2019-04-30T17:32:23 02:00</time>
      </trkpt>
      <trkpt lat="48.67332" lon="-3.95728">
        <ele>3.3</ele>
        <time>2019-04-30T17:32:39 02:00</time>
      </trkpt>
      <trkpt lat="48.67322" lon="-3.95762">
        <ele>3.7</ele>
        <time>2019-04-30T17:32:56 02:00</time>
      </trkpt>
      <trkpt lat="48.67324" lon="-3.95796">
        <ele>3.8</ele>
        <time>2019-04-30T17:33:13 02:00</time>
      </trkpt>
      <trkpt lat="48.67329" lon="-3.95829">
        <ele>2.6</ele>
        <time>2019-04-30T17:33:32 02:00</time>
      </trkpt>
      <trkpt lat="48.67337" lon="-3.95862">
        <ele>2.3</ele>
        <time>2019-04-30T17:33:49 02:00</time>
      </trkpt>
      <trkpt lat="48.6734" lon="-3.95896">
        <ele>2.7</ele>
        <time>2019-04-30T17:34:08 02:00</time>
      </trkpt>
      <trkpt lat="48.67352" lon="-3.95929">
        <ele>2.9</ele>
        <time>2019-04-30T17:34:25 02:00</time>
      </trkpt>
      <trkpt lat="48.67364" lon="-3.9596">
        <ele>2.8</ele>
        <time>2019-04-30T17:34:39 02:00</time>
      </trkpt>
      <trkpt lat="48.67372" lon="-3.95992">
        <ele>2.7</ele>
        <time>2019-04-30T17:34:55 02:00</time>
      </trkpt>
      <trkpt lat="48.67378" lon="-3.96026">
        <ele>3.3</ele>
        <time>2019-04-30T17:35:12 02:00</time>
      </trkpt>
      <trkpt lat="48.6738" lon="-3.96061">
        <ele>3.6</ele>
        <time>2019-04-30T17:35:28 02:00</time>
      </trkpt>
      <trkpt lat="48.67391" lon="-3.96091">
        <ele>3.9</ele>
        <time>2019-04-30T17:35:44 02:00</time>
      </trkpt>
      <trkpt lat="48.67401" lon="-3.96122">
        <ele>3.8</ele>
        <time>2019-04-30T17:36:03 02:00</time>
      </trkpt>
      <trkpt lat="48.67418" lon="-3.96147">
        <ele>2.2</ele>
        <time>2019-04-30T17:36:17 02:00</time>
      </trkpt>
      <trkpt lat="48.67427" lon="-3.96179">
        <ele>2.6</ele>
        <time>2019-04-30T17:36:34 02:00</time>
      </trkpt>
      <trkpt lat="48.67436" lon="-3.9621">
        <ele>3.4</ele>
        <time>2019-04-30T17:36:53 02:00</time>
      </trkpt>
      <trkpt lat="48.67451" lon="-3.96237">
        <ele>3.7</ele>
        <time>2019-04-30T17:37:10 02:00</time>
      </trkpt>
      <trkpt lat="48.67448" lon="-3.96271">
        <ele>5.3</ele>
        <time>2019-04-30T17:37:26 02:00</time>
      </trkpt>
      <trkpt lat="48.67455" lon="-3.96304">
        <ele>5.8</ele>
        <time>2019-04-30T17:37:56 02:00</time>
      </trkpt>
      <trkpt lat="48.67476" lon="-3.9632">
        <ele>5.8</ele>
        <time>2019-04-30T17:38:08 02:00</time>
      </trkpt>
      <trkpt lat="48.67495" lon="-3.96339">
        <ele>6.6</ele>
        <time>2019-04-30T17:39:34 02:00</time>
      </trkpt>
      <trkpt lat="48.67514" lon="-3.96362">
        <ele>6.3</ele>
        <time>2019-04-30T17:39:49 02:00</time>
      </trkpt>
      <trkpt lat="48.67528" lon="-3.96389">
        <ele>6.5</ele>
        <time>2019-04-30T17:40:07 02:00</time>
      </trkpt>
      <trkpt lat="48.67541" lon="-3.96419">
        <ele>6</ele>
        <time>2019-04-30T17:40:29 02:00</time>
      </trkpt>
      <trkpt lat="48.67556" lon="-3.96445">
        <ele>5.5</ele>
        <time>2019-04-30T17:40:44 02:00</time>
      </trkpt>
      <trkpt lat="48.67576" lon="-3.96463">
        <ele>5.4</ele>
        <time>2019-04-30T17:41:02 02:00</time>
      </trkpt>
      <trkpt lat="48.67596" lon="-3.96479">
        <ele>4.2</ele>
        <time>2019-04-30T17:41:20 02:00</time>
      </trkpt>
      <trkpt lat="48.67618" lon="-3.9649">
        <ele>3.9</ele>
        <time>2019-04-30T17:41:42 02:00</time>
      </trkpt>
      <trkpt lat="48.67639" lon="-3.96478">
        <ele>3.6</ele>
        <time>2019-04-30T17:41:58 02:00</time>
      </trkpt>
      <trkpt lat="48.67661" lon="-3.96492">
        <ele>3.2</ele>
        <time>2019-04-30T17:42:26 02:00</time>
      </trkpt>
      <trkpt lat="48.67665" lon="-3.96527">
        <ele>3.4</ele>
        <time>2019-04-30T17:43:01 02:00</time>
      </trkpt>
      <trkpt lat="48.67644" lon="-3.96544">
        <ele>3.6</ele>
        <time>2019-04-30T17:43:19 02:00</time>
      </trkpt>
      <trkpt lat="48.67623" lon="-3.96558">
        <ele>3.7</ele>
        <time>2019-04-30T17:43:36 02:00</time>
      </trkpt>
      <trkpt lat="48.67604" lon="-3.96577">
        <ele>3.8</ele>
        <time>2019-04-30T17:43:54 02:00</time>
      </trkpt>
      <trkpt lat="48.67584" lon="-3.96594">
        <ele>3.9</ele>
        <time>2019-04-30T17:44:12 02:00</time>
      </trkpt>
      <trkpt lat="48.67562" lon="-3.96602">
        <ele>4.3</ele>
        <time>2019-04-30T17:44:28 02:00</time>
      </trkpt>
      <trkpt lat="48.67539" lon="-3.96607">
        <ele>4.5</ele>
        <time>2019-04-30T17:44:43 02:00</time>
      </trkpt>
      <trkpt lat="48.67519" lon="-3.9659">
        <ele>4.8</ele>
        <time>2019-04-30T17:45:01 02:00</time>
      </trkpt>
      <trkpt lat="48.67496" lon="-3.96593">
        <ele>5.2</ele>
        <time>2019-04-30T17:45:21 02:00</time>
      </trkpt>
      <trkpt lat="48.67475" lon="-3.96611">
        <ele>5.5</ele>
        <time>2019-04-30T17:45:39 02:00</time>
      </trkpt>
      <trkpt lat="48.67457" lon="-3.96632">
        <ele>5.7</ele>
        <time>2019-04-30T17:45:55 02:00</time>
      </trkpt>
      <trkpt lat="48.67435" lon="-3.96623">
        <ele>5.8</ele>
        <time>2019-04-30T17:46:18 02:00</time>
      </trkpt>
      <trkpt lat="48.67433" lon="-3.96657">
        <ele>5.9</ele>
        <time>2019-04-30T17:46:47 02:00</time>
      </trkpt>
      <trkpt lat="48.67424" lon="-3.96688">
        <ele>6</ele>
        <time>2019-04-30T17:47:01 02:00</time>
      </trkpt>
      <trkpt lat="48.67415" lon="-3.9672">
        <ele>6.3</ele>
        <time>2019-04-30T17:47:18 02:00</time>
      </trkpt>
      <trkpt lat="48.67401" lon="-3.96747">
        <ele>6.3</ele>
        <time>2019-04-30T17:47:35 02:00</time>
      </trkpt>
      <trkpt lat="48.67384" lon="-3.96771">
        <ele>5.2</ele>
        <time>2019-04-30T17:47:53 02:00</time>
      </trkpt>
      <trkpt lat="48.67372" lon="-3.96799">
        <ele>4.9</ele>
        <time>2019-04-30T17:48:09 02:00</time>
      </trkpt>
      <trkpt lat="48.67355" lon="-3.96823">
        <ele>4.5</ele>
        <time>2019-04-30T17:48:24 02:00</time>
      </trkpt>
      <trkpt lat="48.67334" lon="-3.96836">
        <ele>4</ele>
        <time>2019-04-30T17:48:42 02:00</time>
      </trkpt>
      <trkpt lat="48.67346" lon="-3.96866">
        <ele>4.4</ele>
        <time>2019-04-30T17:49:15 02:00</time>
      </trkpt>
      <trkpt lat="48.67347" lon="-3.96901">
        <ele>4.8</ele>
        <time>2019-04-30T17:49:33 02:00</time>
      </trkpt>
      <trkpt lat="48.67354" lon="-3.96936">
        <ele>4.7</ele>
        <time>2019-04-30T17:49:55 02:00</time>
      </trkpt>
      <trkpt lat="48.6737" lon="-3.96961">
        <ele>4.5</ele>
        <time>2019-04-30T17:50:12 02:00</time>
      </trkpt>
      <trkpt lat="48.67381" lon="-3.96994">
        <ele>4.3</ele>
        <time>2019-04-30T17:50:30 02:00</time>
      </trkpt>
      <trkpt lat="48.67388" lon="-3.97029">
        <ele>3.7</ele>
        <time>2019-04-30T17:50:47 02:00</time>
      </trkpt>
      <trkpt lat="48.67402" lon="-3.97058">
        <ele>3.8</ele>
        <time>2019-04-30T17:51:03 02:00</time>
      </trkpt>
      <trkpt lat="48.67417" lon="-3.97087">
        <ele>4.4</ele>
        <time>2019-04-30T17:51:21 02:00</time>
      </trkpt>
      <trkpt lat="48.67434" lon="-3.97108">
        <ele>6.2</ele>
        <time>2019-04-30T17:51:37 02:00</time>
      </trkpt>
      <trkpt lat="48.67449" lon="-3.97135">
        <ele>7.1</ele>
        <time>2019-04-30T17:51:54 02:00</time>
      </trkpt>
      <trkpt lat="48.67457" lon="-3.97168">
        <ele>10.1</ele>
        <time>2019-04-30T17:52:09 02:00</time>
      </trkpt>
      <trkpt lat="48.67476" lon="-3.97189">
        <ele>10.6</ele>
        <time>2019-04-30T17:52:33 02:00</time>
      </trkpt>
      <trkpt lat="48.67499" lon="-3.97191">
        <ele>10.8</ele>
        <time>2019-04-30T17:52:52 02:00</time>
      </trkpt>
      <trkpt lat="48.67521" lon="-3.97203">
        <ele>13.1</ele>
        <time>2019-04-30T17:53:03 02:00</time>
      </trkpt>
      <trkpt lat="48.67543" lon="-3.97204">
        <ele>13.4</ele>
        <time>2019-04-30T17:53:22 02:00</time>
      </trkpt>
      <trkpt lat="48.67564" lon="-3.9719">
        <ele>13.6</ele>
        <time>2019-04-30T17:54:11 02:00</time>
      </trkpt>
      <trkpt lat="48.67575" lon="-3.9716">
        <ele>13.2</ele>
        <time>2019-04-30T17:54:28 02:00</time>
      </trkpt>
      <trkpt lat="48.67568" lon="-3.97125">
        <ele>12.5</ele>
        <time>2019-04-30T17:54:49 02:00</time>
      </trkpt>
      <trkpt lat="48.67559" lon="-3.97093">
        <ele>12.7</ele>
        <time>2019-04-30T17:55:04 02:00</time>
      </trkpt>
      <trkpt lat="48.67553" lon="-3.97058">
        <ele>11.7</ele>
        <time>2019-04-30T17:55:19 02:00</time>
      </trkpt>
      <trkpt lat="48.67554" lon="-3.97024">
        <ele>11.2</ele>
        <time>2019-04-30T17:55:37 02:00</time>
      </trkpt>
      <trkpt lat="48.67566" lon="-3.96994">
        <ele>9.9</ele>
        <time>2019-04-30T17:55:55 02:00</time>
      </trkpt>
      <trkpt lat="48.67585" lon="-3.96975">
        <ele>9.4</ele>
        <time>2019-04-30T17:56:13 02:00</time>
      </trkpt>
      <trkpt lat="48.67606" lon="-3.96959">
        <ele>8.6</ele>
        <time>2019-04-30T17:56:32 02:00</time>
      </trkpt>
      <trkpt lat="48.6763" lon="-3.96949">
        <ele>8.3</ele>
        <time>2019-04-30T17:56:47 02:00</time>
      </trkpt>
      <trkpt lat="48.67651" lon="-3.96938">
        <ele>7.3</ele>
        <time>2019-04-30T17:57:03 02:00</time>
      </trkpt>
      <trkpt lat="48.67674" lon="-3.96937">
        <ele>6.6</ele>
        <time>2019-04-30T17:57:21 02:00</time>
      </trkpt>
      <trkpt lat="48.67696" lon="-3.96941">
        <ele>7.2</ele>
        <time>2019-04-30T17:57:37 02:00</time>
      </trkpt>
      <trkpt lat="48.6772" lon="-3.96941">
        <ele>7</ele>
        <time>2019-04-30T17:57:51 02:00</time>
      </trkpt>
      <trkpt lat="48.67743" lon="-3.96936">
        <ele>6.2</ele>
        <time>2019-04-30T17:58:03 02:00</time>
      </trkpt>
      <trkpt lat="48.67766" lon="-3.96926">
        <ele>5.3</ele>
        <time>2019-04-30T17:58:14 02:00</time>
      </trkpt>
      <trkpt lat="48.67788" lon="-3.96912">
        <ele>4.5</ele>
        <time>2019-04-30T17:58:27 02:00</time>
      </trkpt>
      <trkpt lat="48.6781" lon="-3.9692">
        <ele>5.7</ele>
        <time>2019-04-30T17:58:50 02:00</time>
      </trkpt>
      <trkpt lat="48.67834" lon="-3.96924">
        <ele>5.2</ele>
        <time>2019-04-30T17:59:06 02:00</time>
      </trkpt>
      <trkpt lat="48.67857" lon="-3.96927">
        <ele>5.3</ele>
        <time>2019-04-30T17:59:19 02:00</time>
      </trkpt>
      <trkpt lat="48.6788" lon="-3.96924">
        <ele>5.1</ele>
        <time>2019-04-30T17:59:34 02:00</time>
      </trkpt>
      <trkpt lat="48.67903" lon="-3.96917">
        <ele>4.1</ele>
        <time>2019-04-30T17:59:50 02:00</time>
      </trkpt>
      <trkpt lat="48.67926" lon="-3.96913">
        <ele>3.3</ele>
        <time>2019-04-30T18:00:06 02:00</time>
      </trkpt>
      <trkpt lat="48.67948" lon="-3.96901">
        <ele>3.7</ele>
        <time>2019-04-30T18:00:22 02:00</time>
      </trkpt>
      <trkpt lat="48.67971" lon="-3.96891">
        <ele>4.1</ele>
        <time>2019-04-30T18:00:37 02:00</time>
      </trkpt>
      <trkpt lat="48.67994" lon="-3.96884">
        <ele>4.1</ele>
        <time>2019-04-30T18:00:57 02:00</time>
      </trkpt>
      <trkpt lat="48.68016" lon="-3.96882">
        <ele>4.4</ele>
        <time>2019-04-30T18:01:10 02:00</time>
      </trkpt>
      <trkpt lat="48.68038" lon="-3.96897">
        <ele>4.8</ele>
        <time>2019-04-30T18:01:29 02:00</time>
      </trkpt>
      <trkpt lat="48.6806" lon="-3.96906">
        <ele>5.3</ele>
        <time>2019-04-30T18:02:10 02:00</time>
      </trkpt>
      <trkpt lat="48.68079" lon="-3.96925">
        <ele>7.3</ele>
        <time>2019-04-30T18:02:24 02:00</time>
      </trkpt>
      <trkpt lat="48.68099" lon="-3.96948">
        <ele>7.9</ele>
        <time>2019-04-30T18:02:41 02:00</time>
      </trkpt>
      <trkpt lat="48.6812" lon="-3.96965">
        <ele>8.1</ele>
        <time>2019-04-30T18:02:57 02:00</time>
      </trkpt>
      <trkpt lat="48.6814" lon="-3.96984">
        <ele>7.8</ele>
        <time>2019-04-30T18:03:12 02:00</time>
      </trkpt>
      <trkpt lat="48.6816" lon="-3.97001">
        <ele>7.4</ele>
        <time>2019-04-30T18:03:31 02:00</time>
      </trkpt>
      <trkpt lat="48.6818" lon="-3.97019">
        <ele>6.6</ele>
        <time>2019-04-30T18:03:48 02:00</time>
      </trkpt>
      <trkpt lat="48.68203" lon="-3.97016">
        <ele>6.2</ele>
        <time>2019-04-30T18:04:44 02:00</time>
      </trkpt>
      <trkpt lat="48.68226" lon="-3.97027">
        <ele>5.8</ele>
        <time>2019-04-30T18:06:10 02:00</time>
      </trkpt>
      <trkpt lat="48.68245" lon="-3.97046">
        <ele>5.9</ele>
        <time>2019-04-30T18:06:29 02:00</time>
      </trkpt>
      <trkpt lat="48.68262" lon="-3.9707">
        <ele>5.3</ele>
        <time>2019-04-30T18:07:03 02:00</time>
      </trkpt>
      <trkpt lat="48.68285" lon="-3.97067">
        <ele>4.9</ele>
        <time>2019-04-30T18:08:49 02:00</time>
      </trkpt>
      <trkpt lat="48.68308" lon="-3.97065">
        <ele>4.5</ele>
        <time>2019-04-30T18:09:04 02:00</time>
      </trkpt>
      <trkpt lat="48.68331" lon="-3.97066">
        <ele>4.3</ele>
        <time>2019-04-30T18:09:15 02:00</time>
      </trkpt>
      <trkpt lat="48.68354" lon="-3.97066">
        <ele>5.2</ele>
        <time>2019-04-30T18:09:38 02:00</time>
      </trkpt>
      <trkpt lat="48.68378" lon="-3.97067">
        <ele>6.1</ele>
        <time>2019-04-30T18:09:50 02:00</time>
      </trkpt>
      <trkpt lat="48.68402" lon="-3.97068">
        <ele>7.1</ele>
        <time>2019-04-30T18:10:04 02:00</time>
      </trkpt>
      <trkpt lat="48.68425" lon="-3.97074">
        <ele>7.8</ele>
        <time>2019-04-30T18:10:16 02:00</time>
      </trkpt>
      <trkpt lat="48.68448" lon="-3.97078">
        <ele>7.8</ele>
        <time>2019-04-30T18:10:36 02:00</time>
      </trkpt>
      <trkpt lat="48.68471" lon="-3.97074">
        <ele>8</ele>
        <time>2019-04-30T18:10:54 02:00</time>
      </trkpt>
      <trkpt lat="48.68494" lon="-3.97075">
        <ele>9</ele>
        <time>2019-04-30T18:11:09 02:00</time>
      </trkpt>
      <trkpt lat="48.68517" lon="-3.97066">
        <ele>8.1</ele>
        <time>2019-04-30T18:11:25 02:00</time>
      </trkpt>
      <trkpt lat="48.6854" lon="-3.9706">
        <ele>7.5</ele>
        <time>2019-04-30T18:11:42 02:00</time>
      </trkpt>
      <trkpt lat="48.68564" lon="-3.97059">
        <ele>7.5</ele>
        <time>2019-04-30T18:11:56 02:00</time>
      </trkpt>
      <trkpt lat="48.68587" lon="-3.97054">
        <ele>8.5</ele>
        <time>2019-04-30T18:12:08 02:00</time>
      </trkpt>
      <trkpt lat="48.6861" lon="-3.97052">
        <ele>8.8</ele>
        <time>2019-04-30T18:12:19 02:00</time>
      </trkpt>
      <trkpt lat="48.68634" lon="-3.97049">
        <ele>9.1</ele>
        <time>2019-04-30T18:12:33 02:00</time>
      </trkpt>
      <trkpt lat="48.68655" lon="-3.97037">
        <ele>9.3</ele>
        <time>2019-04-30T18:12:47 02:00</time>
      </trkpt>
      <trkpt lat="48.68676" lon="-3.97019">
        <ele>7.8</ele>
        <time>2019-04-30T18:13:06 02:00</time>
      </trkpt>
      <trkpt lat="48.68699" lon="-3.97006">
        <ele>7.2</ele>
        <time>2019-04-30T18:13:17 02:00</time>
      </trkpt>
      <trkpt lat="48.68721" lon="-3.96991">
        <ele>5</ele>
        <time>2019-04-30T18:13:33 02:00</time>
      </trkpt>
      <trkpt lat="48.68741" lon="-3.96976">
        <ele>5</ele>
        <time>2019-04-30T18:13:49 02:00</time>
      </trkpt>
      <trkpt lat="48.68763" lon="-3.96963">
        <ele>4.8</ele>
        <time>2019-04-30T18:14:08 02:00</time>
      </trkpt>
      <trkpt lat="48.68784" lon="-3.96948">
        <ele>4.6</ele>
        <time>2019-04-30T18:14:24 02:00</time>
      </trkpt>
      <trkpt lat="48.68807" lon="-3.96936">
        <ele>4.5</ele>
        <time>2019-04-30T18:14:38 02:00</time>
      </trkpt>
      <trkpt lat="48.68829" lon="-3.96924">
        <ele>4.2</ele>
        <time>2019-04-30T18:14:55 02:00</time>
      </trkpt>
      <trkpt lat="48.68851" lon="-3.96913">
        <ele>4.3</ele>
        <time>2019-04-30T18:15:07 02:00</time>
      </trkpt>
      <trkpt lat="48.68874" lon="-3.96907">
        <ele>4.6</ele>
        <time>2019-04-30T18:15:24 02:00</time>
      </trkpt>
      <trkpt lat="48.68896" lon="-3.96893">
        <ele>4.8</ele>
        <time>2019-04-30T18:15:38 02:00</time>
      </trkpt>
      <trkpt lat="48.68918" lon="-3.9688">
        <ele>5</ele>
        <time>2019-04-30T18:15:52 02:00</time>
      </trkpt>
      <trkpt lat="48.6894" lon="-3.96871">
        <ele>5</ele>
        <time>2019-04-30T18:16:05 02:00</time>
      </trkpt>
      <trkpt lat="48.68963" lon="-3.96867">
        <ele>5</ele>
        <time>2019-04-30T18:16:19 02:00</time>
      </trkpt>
      <trkpt lat="48.68983" lon="-3.96849">
        <ele>5</ele>
        <time>2019-04-30T18:16:38 02:00</time>
      </trkpt>
      <trkpt lat="48.69004" lon="-3.96831">
        <ele>5</ele>
        <time>2019-04-30T18:16:54 02:00</time>
      </trkpt>
      <trkpt lat="48.69013" lon="-3.96799">
        <ele>5.3</ele>
        <time>2019-04-30T18:17:10 02:00</time>
      </trkpt>
      <trkpt lat="48.69012" lon="-3.96763">
        <ele>5.6</ele>
        <time>2019-04-30T18:17:22 02:00</time>
      </trkpt>
      <trkpt lat="48.69011" lon="-3.96729">
        <ele>5.5</ele>
        <time>2019-04-30T18:17:43 02:00</time>
      </trkpt>
      <trkpt lat="48.69006" lon="-3.96695">
        <ele>4.9</ele>
        <time>2019-04-30T18:17:56 02:00</time>
      </trkpt>
      <trkpt lat="48.69002" lon="-3.9666">
        <ele>4.1</ele>
        <time>2019-04-30T18:18:10 02:00</time>
      </trkpt>
      <trkpt lat="48.68987" lon="-3.96635">
        <ele>4</ele>
        <time>2019-04-30T18:18:28 02:00</time>
      </trkpt>
      <trkpt lat="48.68969" lon="-3.96614">
        <ele>4</ele>
        <time>2019-04-30T18:18:42 02:00</time>
      </trkpt>
      <trkpt lat="48.68954" lon="-3.96587">
        <ele>4</ele>
        <time>2019-04-30T18:19:00 02:00</time>
      </trkpt>
      <trkpt lat="48.68939" lon="-3.96558">
        <ele>3.4</ele>
        <time>2019-04-30T18:19:15 02:00</time>
      </trkpt>
      <trkpt lat="48.68927" lon="-3.96529">
        <ele>3.2</ele>
        <time>2019-04-30T18:19:36 02:00</time>
      </trkpt>
      <trkpt lat="48.68913" lon="-3.96501">
        <ele>3</ele>
        <time>2019-04-30T18:19:56 02:00</time>
      </trkpt>
    </trkseg>
  </trk>
</gpx>